createdAt,value
2022-12-19T00:01:36.203Z,12.77
2022-12-19T00:04:08.128Z,13.45
2022-12-19T00:06:36.809Z,13.63
2022-12-19T00:09:05.059Z,13.23
2022-12-19T00:11:32.757Z,12.73
2022-12-19T00:14:00.342Z,13.85
2022-12-19T00:16:29.756Z,13.73
2022-12-19T00:18:58.809Z,12.98
2022-12-19T00:21:27.905Z,13.03
2022-12-19T00:23:55.334Z,12.55
2022-12-19T00:26:30.096Z,12.70
2022-12-19T00:28:59.241Z,13.25
2022-12-19T00:31:28.623Z,13.23
2022-12-19T00:33:56.117Z,13.30
2022-12-19T00:36:25.496Z,13.07
2022-12-19T00:38:55.428Z,13.50
2022-12-19T00:41:24.719Z,13.40
2022-12-19T00:43:54.949Z,12.50
2022-12-19T00:46:21.926Z,12.80
2022-12-19T00:48:48.922Z,12.57
2022-12-19T00:51:18.547Z,12.68
2022-12-19T00:53:47.356Z,13.68
2022-12-19T00:56:22.116Z,11.63
2022-12-19T00:58:49.365Z,13.17
2022-12-19T01:01:19.406Z,12.05
2022-12-19T01:04:11.270Z,12.63
2022-12-19T01:06:33.397Z,12.77
2022-12-19T01:09:00.249Z,13.18
2022-12-19T01:11:45.588Z,12.30
2022-12-19T01:14:19.007Z,11.60
2022-12-19T01:16:47.916Z,12.60
2022-12-19T01:19:15.045Z,12.88
2022-12-19T01:21:42.327Z,13.18
2022-12-19T01:24:09.950Z,12.50
2022-12-19T01:26:36.727Z,12.32
2022-12-19T01:29:04.900Z,12.68
2022-12-19T01:31:34.127Z,13.15
2022-12-19T01:41:53.146Z,11.68
2022-12-19T01:44:39.817Z,12.00
2022-12-19T01:56:23.086Z,12.30
2022-12-19T01:58:54.781Z,12.95
2022-12-19T02:01:32.691Z,12.27
2022-12-19T02:04:03.241Z,12.63
2022-12-19T02:06:31.433Z,12.60
2022-12-19T02:08:58.499Z,12.30
2022-12-19T02:11:25.308Z,12.68
2022-12-19T02:13:52.579Z,11.95
2022-12-19T02:16:56.127Z,12.30
2022-12-19T02:19:56.168Z,11.80
2022-12-19T02:22:28.974Z,11.50
2022-12-19T02:25:08.471Z,11.65
2022-12-19T02:28:03.407Z,11.27
2022-12-19T02:30:50.458Z,11.32
2022-12-19T02:33:26.206Z,10.93
2022-12-19T02:36:13.330Z,11.52
2022-12-19T02:38:59.522Z,10.10
2022-12-19T02:41:54.822Z,9.50
2022-12-19T02:44:35.950Z,9.90
2022-12-19T02:47:04.576Z,10.77
2022-12-19T02:49:35.252Z,10.80
2022-12-19T02:52:31.167Z,11.45
2022-12-19T02:55:06.543Z,11.57
2022-12-19T02:57:42.116Z,10.20
2022-12-19T03:00:17.969Z,11.07
2022-12-19T03:03:07.445Z,9.85
2022-12-19T03:05:34.196Z,10.45
2022-12-19T03:08:25.182Z,10.10
2022-12-19T03:11:15.732Z,10.05
2022-12-19T03:13:50.927Z,9.73
2022-12-19T03:16:17.714Z,9.35
2022-12-19T03:18:45.436Z,10.32
2022-12-19T03:21:19.605Z,10.07
2022-12-19T03:23:48.039Z,9.27
2022-12-19T03:26:24.705Z,9.90
2022-12-19T03:29:11.244Z,9.88
2022-12-19T03:31:39.727Z,10.45
2022-12-19T03:34:34.233Z,10.00
2022-12-19T03:37:04.354Z,9.15
2022-12-19T03:39:32.443Z,9.80
2022-12-19T03:42:19.383Z,9.93
2022-12-19T03:44:47.875Z,9.15
2022-12-19T03:47:39.087Z,10.02
2022-12-19T03:50:08.066Z,9.98
2022-12-19T03:52:48.910Z,9.83
2022-12-19T03:55:27.087Z,9.13
2022-12-19T03:58:20.805Z,9.23
2022-12-19T04:00:49.808Z,8.40
2022-12-19T04:03:18.437Z,9.27
2022-12-19T04:05:48.549Z,9.83
2022-12-19T04:08:16.732Z,8.93
2022-12-19T04:11:08.135Z,8.80
2022-12-19T04:14:01.389Z,9.45
2022-12-19T04:16:46.601Z,8.27
2022-12-19T04:19:24.900Z,7.73
2022-12-19T04:22:00.134Z,6.82
2022-12-19T04:24:34.176Z,8.23
2022-12-19T04:27:03.443Z,7.90
2022-12-19T04:29:34.247Z,7.72
2022-12-19T04:32:04.181Z,6.23
2022-12-19T04:34:31.198Z,7.32
2022-12-19T04:36:58.127Z,7.15
2022-12-19T04:39:24.944Z,6.93
2022-12-19T04:41:52.261Z,7.63
2022-12-19T04:44:19.177Z,7.63
2022-12-19T04:46:46.022Z,7.05
2022-12-19T04:49:12.973Z,7.05
2022-12-19T04:51:39.689Z,7.40
2022-12-19T04:54:08.518Z,6.82
2022-12-19T04:56:35.250Z,6.87
2022-12-19T04:59:01.981Z,7.43
2022-12-19T05:01:29.045Z,7.05
2022-12-19T05:04:01.253Z,6.80
2022-12-19T05:06:31.311Z,7.38
2022-12-19T05:08:57.989Z,6.17
2022-12-19T05:11:24.802Z,6.15
2022-12-19T05:13:51.716Z,7.28
2022-12-19T05:16:18.689Z,7.13
2022-12-19T05:18:45.631Z,6.55
2022-12-19T05:21:13.121Z,7.10
2022-12-19T05:23:40.092Z,6.70
2022-12-19T05:26:07.447Z,7.15
2022-12-19T05:28:35.073Z,7.00
2022-12-19T05:31:09.138Z,7.15
2022-12-19T05:33:36.837Z,7.60
2022-12-19T05:36:04.185Z,7.60
2022-12-19T05:38:31.346Z,6.65
2022-12-19T05:40:58.335Z,7.60
2022-12-19T05:43:25.355Z,7.88
2022-12-19T05:45:52.127Z,7.80
2022-12-19T05:48:19.102Z,8.18
2022-12-19T05:50:50.191Z,8.23
2022-12-19T05:53:21.857Z,8.13
2022-12-19T05:55:51.273Z,8.85
2022-12-19T05:58:19.193Z,8.07
2022-12-19T06:00:45.956Z,8.55
2022-12-19T06:03:12.733Z,8.65
2022-12-19T06:05:39.575Z,8.57
2022-12-19T06:08:06.388Z,8.70
2022-12-19T06:10:34.145Z,8.70
2022-12-19T06:13:00.934Z,8.90
2022-12-19T06:15:27.994Z,9.05
2022-12-19T06:17:55.223Z,9.25
2022-12-19T06:20:22.018Z,9.02
2022-12-19T06:22:48.717Z,9.40
2022-12-19T06:25:15.480Z,9.80
2022-12-19T06:27:42.232Z,9.60
2022-12-19T06:30:09.376Z,9.55
2022-12-19T06:32:38.054Z,9.18
2022-12-19T06:35:05.824Z,8.37
2022-12-19T06:37:32.664Z,9.18
2022-12-19T06:39:59.398Z,7.95
2022-12-19T06:42:26.498Z,8.15
2022-12-19T06:44:55.929Z,8.75
2022-12-19T06:47:24.623Z,8.60
2022-12-19T06:49:51.702Z,7.75
2022-12-19T06:52:18.661Z,8.75
2022-12-19T06:54:45.469Z,8.45
2022-12-19T06:57:13.541Z,8.80
2022-12-19T06:59:40.240Z,8.43
2022-12-19T07:02:19.045Z,8.20
2022-12-19T07:04:51.610Z,8.38
2022-12-19T07:07:18.427Z,7.68
2022-12-19T07:09:45.302Z,7.97
2022-12-19T07:12:12.132Z,7.93
2022-12-19T07:14:38.941Z,7.78
2022-12-19T07:17:06.509Z,7.38
2022-12-19T07:19:37.225Z,7.30
2022-12-19T07:22:05.443Z,8.05
2022-12-19T07:24:33.184Z,7.17
2022-12-19T07:27:00.010Z,7.75
2022-12-19T07:29:26.867Z,7.85
2022-12-19T07:31:53.685Z,7.85
2022-12-19T07:34:20.528Z,6.93
2022-12-19T07:36:47.366Z,6.87
2022-12-19T07:39:14.222Z,7.10
2022-12-19T07:41:41.004Z,6.85
2022-12-19T07:44:08.135Z,6.53
2022-12-19T07:46:35.291Z,7.22
2022-12-19T07:49:05.216Z,6.57
2022-12-19T07:51:31.988Z,6.72
2022-12-19T07:53:58.732Z,6.70
2022-12-19T07:56:26.663Z,6.85
2022-12-19T07:58:53.789Z,5.68
2022-12-19T08:01:20.819Z,6.13
2022-12-19T08:03:47.674Z,5.78
2022-12-19T08:06:14.367Z,5.60
2022-12-19T08:08:41.236Z,5.90
2022-12-19T08:11:19.457Z,6.07
2022-12-19T08:13:47.895Z,5.77
2022-12-19T08:16:15.492Z,5.95
2022-12-19T08:18:42.338Z,5.70
2022-12-19T08:21:10.232Z,5.63
2022-12-19T08:23:38.604Z,6.28
2022-12-19T08:26:14.368Z,6.07
2022-12-19T08:28:41.739Z,6.22
2022-12-19T08:31:12.775Z,5.97
2022-12-19T08:33:40.219Z,6.20
2022-12-19T08:36:13.014Z,6.03
2022-12-19T08:38:40.393Z,5.67
2022-12-19T08:41:08.276Z,6.32
2022-12-19T08:43:35.166Z,6.28
2022-12-19T08:46:02.076Z,5.93
2022-12-19T08:48:28.928Z,5.90
2022-12-19T08:51:04.529Z,6.17
2022-12-19T08:53:34.154Z,6.07
2022-12-19T08:56:03.384Z,5.90
2022-12-19T08:58:30.953Z,6.03
2022-12-19T09:01:06.170Z,5.47
2022-12-19T09:03:49.050Z,5.40
2022-12-19T09:06:20.393Z,5.15
2022-12-19T09:08:47.511Z,4.20
2022-12-19T09:11:16.459Z,5.07
2022-12-19T09:13:44.019Z,6.07
2022-12-19T09:16:17.532Z,5.33
2022-12-19T09:18:48.741Z,4.80
2022-12-19T09:21:16.749Z,5.50
2022-12-19T09:23:47.831Z,4.97
2022-12-19T09:26:17.269Z,4.82
2022-12-19T09:28:47.073Z,4.63
2022-12-19T09:31:19.787Z,5.47
2022-12-19T09:33:47.129Z,4.53
2022-12-19T09:36:20.343Z,4.78
2022-12-19T09:38:47.723Z,4.82
2022-12-19T09:41:32.913Z,4.87
2022-12-19T09:44:37.063Z,5.20
2022-12-19T09:47:12.043Z,4.20
2022-12-19T09:49:43.185Z,4.90
2022-12-19T09:52:19.059Z,4.50
2022-12-19T09:55:04.962Z,4.33
2022-12-19T09:57:49.988Z,5.03
2022-12-19T10:00:20.177Z,4.75
2022-12-19T10:03:12.654Z,4.57
2022-12-19T10:07:16.198Z,4.82
2022-12-19T10:09:14.047Z,4.17
2022-12-19T10:12:38.374Z,4.72
2022-12-19T10:14:44.856Z,4.60
2022-12-19T10:17:32.849Z,4.65
2022-12-19T10:20:40.173Z,4.55
2022-12-19T10:23:29.349Z,4.47
2022-12-19T10:25:56.161Z,4.60
2022-12-19T10:28:26.051Z,5.25
2022-12-19T10:31:21.419Z,4.60
2022-12-19T10:34:17.937Z,4.60
2022-12-19T10:40:21.723Z,4.03
2022-12-19T10:43:30.733Z,4.38
2022-12-19T10:46:03.906Z,5.22
2022-12-19T10:48:31.600Z,4.60
2022-12-19T10:51:02.537Z,4.80
2022-12-19T10:53:34.143Z,4.45
2022-12-19T10:56:12.418Z,4.47
2022-12-19T10:58:43.859Z,4.72
2022-12-19T11:01:30.511Z,4.63
2022-12-19T11:04:15.589Z,4.30
2022-12-19T11:06:51.884Z,4.28
2022-12-19T11:09:27.676Z,4.70
2022-12-19T11:16:43.717Z,4.65
2022-12-19T11:20:58.342Z,4.25
2022-12-19T11:27:42.189Z,3.90
2022-12-19T11:29:37.683Z,4.25
2022-12-19T11:29:42.672Z,4.57
2022-12-19T11:30:06.373Z,4.97
2022-12-19T11:33:17.981Z,4.97
2022-12-19T11:35:56.863Z,5.38
2022-12-19T11:38:35.745Z,5.30
2022-12-19T11:41:16.213Z,5.20
2022-12-19T11:44:11.651Z,5.80
2022-12-19T11:47:04.231Z,5.40
2022-12-19T11:49:57.749Z,4.80
2022-12-19T11:56:00.504Z,5.25
2022-12-19T11:58:29.510Z,4.60
2022-12-19T12:01:08.070Z,4.87
2022-12-19T12:04:02.023Z,4.72
2022-12-19T12:06:34.814Z,4.50
2022-12-19T12:13:39.388Z,5.03
2022-12-19T12:18:55.057Z,4.60
2022-12-19T12:29:13.866Z,4.30
2022-12-19T12:31:08.063Z,4.32
2022-12-19T12:31:13.775Z,4.35
2022-12-19T12:31:32.351Z,4.43
2022-12-19T12:31:46.188Z,4.20
2022-12-19T12:32:01.908Z,4.10
2022-12-19T12:35:28.680Z,4.03
2022-12-19T12:39:40.011Z,4.10
2022-12-19T12:42:33.741Z,4.30
2022-12-19T12:45:02.843Z,4.00
2022-12-19T12:47:30.547Z,3.63
2022-12-19T12:50:01.423Z,3.70
2022-12-19T12:52:39.525Z,3.75
2022-12-19T12:55:33.336Z,4.05
2022-12-19T12:58:00.433Z,4.00
2022-12-19T13:00:30.281Z,3.50
2022-12-19T13:03:15.897Z,3.80
2022-12-19T13:06:04.029Z,3.53
2022-12-19T13:08:44.958Z,3.92
2022-12-19T13:11:39.368Z,3.70
2022-12-19T13:14:26.895Z,3.67
2022-12-19T13:16:54.568Z,3.58
2022-12-19T13:19:29.751Z,3.67
2022-12-19T13:22:08.729Z,3.30
2022-12-19T13:24:50.169Z,3.37
2022-12-19T13:27:20.020Z,3.70
2022-12-19T13:30:12.511Z,3.50
2022-12-19T13:32:39.513Z,3.60
2022-12-19T13:36:21.577Z,3.45
2022-12-19T13:39:54.166Z,3.77
2022-12-19T13:41:48.465Z,3.20
2022-12-19T13:44:21.663Z,3.28
2022-12-19T13:46:48.948Z,3.28
2022-12-19T13:49:26.334Z,3.40
2022-12-19T13:51:58.145Z,3.73
2022-12-19T13:54:26.470Z,3.25
2022-12-19T13:56:54.414Z,3.03
2022-12-19T13:59:25.046Z,3.33
2022-12-19T14:01:54.103Z,3.05
2022-12-19T14:04:33.391Z,3.27
2022-12-19T14:07:06.039Z,3.20
2022-12-19T14:11:29.872Z,3.45
2022-12-19T14:13:40.222Z,3.20
2022-12-19T14:15:38.013Z,3.20
2022-12-19T14:18:45.418Z,3.20
2022-12-19T14:22:09.702Z,2.85
2022-12-19T14:24:20.999Z,3.17
2022-12-19T14:28:19.306Z,3.10
2022-12-19T14:30:32.105Z,3.03
2022-12-19T14:33:53.581Z,3.07
2022-12-19T14:36:12.307Z,3.00
2022-12-19T14:39:20.789Z,3.15
2022-12-19T14:41:48.018Z,2.85
2022-12-19T14:54:01.594Z,2.97
2022-12-19T14:54:04.473Z,3.15
2022-12-19T14:54:31.364Z,2.67
2022-12-19T14:54:44.053Z,2.78
2022-12-19T14:59:02.761Z,2.80
2022-12-19T15:01:35.020Z,2.73
2022-12-19T15:04:53.080Z,3.20
2022-12-19T15:07:11.815Z,3.25
2022-12-19T15:10:58.597Z,3.25
2022-12-19T15:14:53.597Z,3.40
2022-12-19T15:16:01.560Z,3.10
2022-12-19T15:18:39.743Z,3.40
2022-12-19T15:21:10.531Z,3.17
2022-12-19T15:23:37.347Z,3.20
2022-12-19T15:26:13.204Z,3.40
2022-12-19T15:28:42.620Z,3.23
2022-12-19T15:31:24.855Z,3.38
2022-12-19T15:36:38.680Z,4.15
2022-12-19T15:39:05.468Z,3.40
2022-12-19T15:41:32.457Z,3.10
2022-12-19T15:44:09.419Z,3.38
2022-12-19T15:46:39.877Z,2.92
2022-12-19T15:49:17.505Z,3.30
2022-12-19T15:51:45.360Z,3.25
2022-12-19T15:56:58.997Z,3.22
2022-12-19T15:59:37.496Z,3.25
2022-12-19T16:02:16.132Z,3.83
2022-12-19T16:04:43.969Z,3.70
2022-12-19T16:07:18.665Z,3.47
2022-12-19T16:09:45.997Z,3.65
2022-12-19T16:12:25.706Z,3.50
2022-12-19T16:14:58.236Z,3.58
2022-12-19T16:17:26.943Z,3.50
2022-12-19T16:19:53.681Z,3.40
2022-12-19T16:22:25.781Z,3.38
2022-12-19T16:24:53.352Z,3.55
2022-12-19T16:27:29.071Z,3.40
2022-12-19T16:29:58.803Z,3.72
2022-12-19T16:32:25.657Z,3.60
2022-12-19T16:34:53.507Z,3.22
2022-12-19T16:37:20.513Z,3.30
2022-12-19T16:39:47.337Z,3.47
2022-12-19T16:42:16.240Z,3.50
2022-12-19T16:44:47.422Z,3.57
2022-12-19T16:47:17.062Z,3.30
2022-12-19T16:49:44.806Z,3.38
2022-12-19T16:52:12.246Z,3.63
2022-12-19T16:54:39.036Z,3.83
2022-12-19T16:57:10.097Z,3.40
2022-12-19T16:59:40.305Z,3.63
2022-12-19T17:02:48.377Z,3.20
2022-12-19T17:05:18.743Z,3.17
2022-12-19T17:07:45.866Z,3.28
2022-12-19T17:10:12.815Z,3.37
2022-12-19T17:12:41.020Z,3.25
2022-12-19T17:15:18.031Z,3.60
2022-12-19T17:17:45.461Z,3.45
2022-12-19T17:20:19.608Z,3.33
2022-12-19T17:22:46.816Z,3.50
2022-12-19T17:25:27.697Z,3.60
2022-12-19T17:27:55.986Z,3.65
2022-12-19T17:30:23.423Z,3.45
2022-12-19T17:32:54.906Z,3.17
2022-12-19T17:35:28.052Z,3.47
2022-12-19T17:37:56.684Z,3.53
2022-12-19T17:40:27.646Z,3.60
2022-12-19T17:42:54.690Z,3.47
2022-12-19T17:45:22.939Z,3.95
2022-12-19T17:47:50.322Z,4.00
2022-12-19T17:50:24.077Z,3.60
2022-12-19T17:52:51.610Z,3.90
2022-12-19T17:55:29.481Z,3.50
2022-12-19T17:57:57.095Z,3.42
2022-12-19T18:00:30.769Z,3.80
2022-12-19T18:03:05.236Z,3.70
2022-12-19T18:05:36.010Z,3.40
2022-12-19T18:08:18.516Z,3.50
2022-12-19T18:10:46.091Z,3.50
2022-12-19T18:13:12.799Z,3.30
2022-12-19T18:15:48.944Z,3.47
2022-12-19T18:18:26.533Z,3.80
2022-12-19T18:20:54.367Z,4.22
2022-12-19T18:23:23.754Z,3.97
2022-12-19T18:25:54.730Z,3.67
2022-12-19T18:28:24.537Z,3.80
2022-12-19T18:30:52.621Z,3.80
2022-12-19T18:33:23.609Z,3.67
2022-12-19T18:35:51.077Z,4.22
2022-12-19T18:38:20.421Z,3.77
2022-12-19T18:40:49.483Z,3.60
2022-12-19T18:43:17.284Z,3.50
2022-12-19T18:45:49.689Z,4.10
2022-12-19T18:48:27.035Z,3.75
2022-12-19T18:50:55.206Z,3.93
2022-12-19T18:53:32.809Z,3.53
2022-12-19T18:56:03.378Z,3.80
2022-12-19T18:58:30.536Z,4.03
2022-12-19T19:00:59.576Z,4.20
2022-12-19T19:03:33.548Z,3.60
2022-12-19T19:06:00.518Z,3.95
2022-12-19T19:08:29.391Z,3.55
2022-12-19T19:10:59.864Z,3.70
2022-12-19T19:13:27.106Z,3.80
2022-12-19T19:16:02.733Z,3.80
2022-12-19T19:18:37.262Z,3.80
2022-12-19T19:21:05.542Z,3.58
2022-12-19T19:23:41.456Z,3.83
2022-12-19T19:26:08.274Z,3.55
2022-12-19T19:28:37.231Z,3.60
2022-12-19T19:31:08.882Z,3.92
2022-12-19T19:33:40.886Z,3.83
2022-12-19T19:36:15.563Z,3.58
2022-12-19T19:38:49.656Z,3.72
2022-12-19T19:41:16.448Z,3.90
2022-12-19T19:43:43.337Z,3.80
2022-12-19T19:46:10.105Z,4.10
2022-12-19T19:48:37.100Z,3.97
2022-12-19T19:51:04.043Z,3.90
2022-12-19T19:53:30.794Z,4.13
2022-12-19T19:56:01.309Z,4.32
2022-12-19T19:58:29.137Z,4.32
2022-12-19T20:00:59.158Z,4.30
2022-12-19T20:03:26.698Z,4.10
2022-12-19T20:06:01.207Z,4.50
2022-12-19T20:08:32.267Z,4.68
2022-12-19T20:11:11.367Z,4.53
2022-12-19T20:13:38.652Z,4.03
2022-12-19T20:16:09.170Z,4.00
2022-12-19T20:18:37.596Z,4.37
2022-12-19T20:21:10.815Z,4.55
2022-12-19T20:23:40.470Z,4.32
2022-12-19T20:26:08.139Z,4.75
2022-12-19T20:28:35.266Z,4.40
2022-12-19T20:31:02.787Z,5.00
2022-12-19T20:33:30.065Z,4.53
2022-12-19T20:35:58.505Z,4.65
2022-12-19T20:38:25.455Z,4.72
2022-12-19T20:40:55.745Z,4.72
2022-12-19T20:43:23.557Z,4.70
2022-12-19T20:46:03.114Z,4.47
2022-12-19T20:48:29.838Z,4.80
2022-12-19T20:50:58.263Z,4.72
2022-12-19T20:53:25.191Z,4.53
2022-12-19T20:55:57.767Z,4.60
2022-12-19T20:58:26.059Z,4.68
2022-12-19T21:00:57.103Z,4.80
2022-12-19T21:03:29.399Z,4.50
2022-12-19T21:05:57.088Z,4.88
2022-12-19T21:08:24.733Z,4.63
2022-12-19T21:10:52.094Z,4.57
2022-12-19T21:13:19.098Z,4.32
2022-12-19T21:15:47.004Z,4.68
2022-12-19T21:18:13.809Z,4.38
2022-12-19T21:20:40.652Z,4.17
2022-12-19T21:23:07.460Z,4.70
2022-12-19T21:25:34.184Z,4.35
2022-12-19T21:28:01.013Z,4.40
2022-12-19T21:30:27.800Z,4.50
2022-12-19T21:32:55.588Z,3.77
2022-12-19T21:35:23.152Z,3.97
2022-12-19T21:37:51.964Z,4.03
2022-12-19T21:40:19.550Z,4.10
2022-12-19T21:42:46.809Z,3.83
2022-12-19T21:45:14.445Z,3.93
2022-12-19T21:47:42.098Z,3.75
2022-12-19T21:50:11.408Z,3.83
2022-12-19T21:52:38.609Z,3.92
2022-12-19T21:55:07.492Z,3.55
2022-12-19T21:57:39.675Z,3.83
2022-12-19T22:00:08.265Z,4.28
2022-12-19T22:02:35.170Z,3.90
2022-12-19T22:05:02.202Z,4.03
2022-12-19T22:07:29.001Z,3.85
2022-12-19T22:09:56.205Z,3.90
2022-12-19T22:12:23.152Z,3.67
2022-12-19T22:14:52.612Z,3.80
2022-12-19T22:17:19.366Z,3.58
2022-12-19T22:19:46.272Z,4.13
2022-12-19T22:22:13.151Z,3.43
2022-12-19T22:24:39.926Z,3.80
2022-12-19T22:27:06.666Z,3.80
2022-12-19T22:29:36.627Z,3.88
2022-12-19T22:32:04.824Z,3.70
2022-12-19T22:34:31.927Z,3.80
2022-12-19T22:36:58.835Z,3.65
2022-12-19T22:39:25.676Z,3.80
2022-12-19T22:41:52.570Z,3.85
2022-12-19T22:44:22.461Z,3.65
2022-12-19T22:46:50.047Z,4.00
2022-12-19T22:49:17.209Z,4.00
2022-12-19T22:51:44.670Z,3.70
2022-12-19T22:54:11.896Z,4.40
2022-12-19T22:56:39.534Z,4.15
2022-12-19T22:59:07.678Z,3.90
2022-12-19T23:01:40.443Z,4.03
2022-12-19T23:04:10.711Z,3.75
2022-12-19T23:06:38.582Z,3.72
2022-12-19T23:09:09.410Z,3.88
2022-12-19T23:11:38.375Z,3.97
2022-12-19T23:14:07.161Z,3.70
2022-12-19T23:16:34.087Z,4.13
2022-12-19T23:19:01.027Z,4.00
2022-12-19T23:21:27.997Z,4.10
2022-12-19T23:23:55.755Z,3.97
2022-12-19T23:26:25.778Z,3.60
2022-12-19T23:29:05.523Z,3.95
2022-12-19T23:31:33.152Z,4.20
2022-12-19T23:34:00.703Z,4.20
2022-12-19T23:39:15.744Z,3.90
2022-12-19T23:41:42.554Z,3.72
2022-12-19T23:44:10.147Z,3.70
2022-12-19T23:46:37.864Z,3.90
2022-12-19T23:49:04.700Z,3.43
2022-12-19T23:51:31.968Z,3.70
2022-12-19T23:53:58.893Z,3.83
2022-12-19T23:56:30.351Z,3.83
2022-12-19T23:58:57.854Z,3.80
